Home > Products > Valid Products > TAF

000
FTUS45 KFGZ 242300
TAFPGA
TAF
KPGA 242323Z 2500/2524 VRB06KT P6SM SKC
     FM252100 22010KT P6SM SCT250=



000
FTUS45 KFGZ 242300
TAFFLG
TAF
KFLG 242323Z 2500/2524 22008KT P6SM SKC
     FM250100 VRB04KT P6SM SKC
     FM251800 22014G24KT P6SM SCT050 SCT200=



000
FTUS45 KFGZ 242300
TAFINW
TAF
KINW 242323Z 2500/2524 14007KT P6SM SKC
     FM251900 22012G22KT P6SM SCT250=



000
FTUS45 KFGZ 241700
TAFPGA
TAF
KPGA 241720Z 2418/2518 VRB06KT P6SM SKC=



000
FTUS45 KFGZ 241700
TAFINW
TAF
KINW 241720Z 2418/2518 13008KT P6SM SKC
     FM242000 20006KT P6SM SKC=



000
FTUS45 KFGZ 241700
TAFFLG
TAF
KFLG 241720Z 2418/2518 21010KT P6SM SKC
     FM250100 VRB04KT P6SM SKC=



000
FTUS45 KFGZ 241100
TAFINW
TAF
KINW 241120Z 2412/2512 20006KT P6SM SKC=



000
FTUS45 KFGZ 241100
TAFPGA
TAF
KPGA 241120Z 2412/2512 VRB06KT P6SM SKC=



000
FTUS45 KFGZ 241100
TAFFLG
TAF
KFLG 241120Z 2412/2512 00000KT P6SM SKC
     FM241800 21010KT P6SM SKC
     FM250100 VRB04KT P6SM SKC=



000
FTUS45 KFGZ 241000 AAB
TAFFLG
TAF AMD
KFLG 241004Z 2410/2506 00000KT 6SM FU FEW250
     FM241700 20010KT P6SM SKC=



000
FTUS45 KFGZ 241000 AAB
TAFFLG
TAF AMD
KFLG 241004Z 2410/2506 00000KT 6SM FU FEW250
     FM241700 20010KT P6SM SKC=



000
FTUS45 KFGZ 240700 AAA
TAFFLG
TAF AMD
KFLG 240743Z 2408/2506 VRB02KT P6SM FEW250
     FM241000 00000KT 4SM FU FEW250
     FM241300 VRB03KT 6SM FU SKC
     FM241700 20010KT P6SM SKC=



000
FTUS45 KFGZ 240500
TAFPGA
TAF
KPGA 240526Z 2406/2506 VRB06KT P6SM SCT250=



000
FTUS45 KFGZ 240500
TAFFLG
TAF
KFLG 240526Z 2406/2506 VRB02KT P6SM FEW250
     FM240800 00000KT 4SM FU FEW250
     FM241300 VRB03KT 6SM FU SKC
     FM241700 20010KT P6SM SKC=



000
FTUS45 KFGZ 240500
TAFINW
TAF
KINW 240526Z 2406/2506 VRB06KT P6SM FEW250=



000
FTUS45 KFGZ 232300
TAFINW
TAF
KINW 232336Z 2400/2424 VRB06KT P6SM FEW250=



000
FTUS45 KFGZ 232300
TAFPGA
TAF
KPGA 232336Z 2400/2424 VRB06KT P6SM SCT250=



000
FTUS45 KFGZ 232300
TAFFLG
TAF
KFLG 232336Z 2400/2424 20008KT P6SM BKN250
     FM240200 VRB02KT P6SM SCT250
     FM240800 00000KT 3SM FU FEW250
     FM241400 VRB03KT 6SM FU SKC=



000
FTUS45 KFGZ 231700
TAFPGA
TAF
KPGA 231720Z 2318/2418 VRB06KT P6SM SCT250=



000
FTUS45 KFGZ 231700
TAFFLG
TAF
KFLG 231720Z 2318/2418 20008KT P6SM SCT250
     FM240200 VRB02KT P6SM FEW250
     FM240800 00000KT 5SM FU FEW250=



000
FTUS45 KFGZ 231700
TAFINW
TAF
KINW 231720Z 2318/2418 VRB06KT P6SM FEW250=



000
FTUS45 KFGZ 231100
TAFPGA
TAF
KPGA 231120Z 2312/2412 VRB06KT P6SM FEW250=



000
FTUS45 KFGZ 231100
TAFFLG
TAF
KFLG 231120Z 2312/2412 VRB02KT 3SM FU FEW250
     FM231330 VRB04KT P6SM FEW250
     FM231830 20008KT P6SM FEW250
     FM240200 VRB02KT P6SM SKC=



000
FTUS45 KFGZ 231100
TAFINW
TAF
KINW 231120Z 2312/2412 VRB06KT P6SM FEW250=



000
FTUS45 KFGZ 231000 AAA
TAFFLG
TAF AMD
KFLG 231007Z 2310/2406 VRB02KT 3SM FU FEW250
     FM231330 VRB04KT P6SM FEW250
     FM231830 20007KT P6SM FEW250
     FM240100 VRB02KT P6SM SKC=



000
FTUS45 KFGZ 230500
TAFINW
TAF
KINW 230539Z 2306/2406 VRB05KT P6SM FEW250=



000
FTUS45 KFGZ 230500
TAFFLG
TAF
KFLG 230539Z 2306/2406 VRB02KT P6SM FEW250
     FM231830 20007KT P6SM FEW250
     FM240100 VRB02KT P6SM SKC=



000
FTUS45 KFGZ 230500
TAFPGA
TAF
KPGA 230539Z 2306/2406 VRB04KT P6SM FEW250=



000
FTUS45 KFGZ 222300
TAFFLG
TAF
KFLG 222333Z 2300/2324 21010KT P6SM FEW060 SCT250
     FM230200 VRB02KT P6SM FEW250
     FM231830 20007KT P6SM FEW250=



000
FTUS45 KFGZ 222300
TAFPGA
TAF
KPGA 222333Z 2300/2324 VRB04KT P6SM FEW250=



000
FTUS45 KFGZ 222300
TAFINW
TAF
KINW 222333Z 2300/2324 VRB05KT P6SM FEW250=



000
FTUS45 KFGZ 221700
TAFFLG
TAF
KFLG 221720Z 2218/2318 21008KT P6SM FEW050 FEW250
     FM230200 VRB02KT P6SM FEW250=



000
FTUS45 KFGZ 221700
TAFPGA
TAF
KPGA 221720Z 2218/2318 VRB03KT P6SM FEW250=



000
FTUS45 KFGZ 221700
TAFINW
TAF
KINW 221720Z 2218/2318 VRB05KT P6SM FEW250=



000
FTUS45 KFGZ 221700
TAFFLG
TAF
KFLG 221720Z 2218/2318 21008KT P6SM FEW050 FEW250
     FM230200 VRB02KT P6SM FEW250=



000
FTUS45 KFGZ 221700
TAFPGA
TAF
KPGA 221720Z 2218/2318 VRB03KT P6SM FEW250=



000
FTUS45 KFGZ 221700
TAFINW
TAF
KINW 221720Z 2218/2318 VRB05KT P6SM FEW250=



000
FTUS45 KFGZ 221100
TAFFLG
TAF
KFLG 221120Z 2212/2312 VRB04KT P6SM FEW250
     FM221800 21010KT P6SM FEW250
     FM230200 VRB02KT P6SM FEW250=



000
FTUS45 KFGZ 221100
TAFPGA
TAF
KPGA 221120Z 2212/2312 VRB06KT P6SM FEW250=



000
FTUS45 KFGZ 221100
TAFINW
TAF
KINW 221120Z 2212/2312 VRB06KT P6SM FEW250=



000
FTUS45 KFGZ 220500
TAFPGA
TAF
KPGA 220534Z 2206/2306 VRB04KT P6SM FEW250
      TEMPO 2206/2208 BKN100=



000
FTUS45 KFGZ 220500
TAFINW
TAF
KINW 220534Z 2206/2306 VRB06KT P6SM FEW250=



000
FTUS45 KFGZ 220500
TAFFLG
TAF
KFLG 220534Z 2206/2306 VRB04KT P6SM FEW250
     FM221800 22009KT P6SM FEW250
     FM230200 VRB02KT P6SM FEW250=



000
FTUS45 KFGZ 220500
TAFFLG
TAF
KFLG 220534Z 2206/2306 VRB04KT P6SM FEW250
     FM221800 22009KT P6SM FEW250
     FM230200 VRB02KT P6SM FEW250=



000
FTUS45 KFGZ 220500
TAFPGA
TAF
KPGA 220534Z 2206/2306 VRB04KT P6SM FEW250
      TEMPO 2206/2208 BKN100=



000
FTUS45 KFGZ 220500
TAFINW
TAF
KINW 220534Z 2206/2306 VRB06KT P6SM FEW250=



    US Dept of Commerce
    National Oceanic and Atmospheric Administration
    National Weather Service
    1325 East West Highway
    Silver Spring, MD 20910
    Page Author: NWS Internet Services Team
Disclaimer
Information Quality
Credits
Glossary
Privacy Policy
Freedom of Information Act (FOIA)
About Us
Career Opportunities